sensor_id;sensor_type;location;lat;lon;timestamp;temperature;humidity
24412;DHT22;12544;46.760;15.942;2022-11-20T00:01:21;3.00;99.90
24412;DHT22;12544;46.760;15.942;2022-11-20T00:03:47;3.10;99.90
24412;DHT22;12544;46.760;15.942;2022-11-20T00:06:15;3.00;99.90
24412;DHT22;12544;46.760;15.942;2022-11-20T00:08:41;3.00;99.90
24412;DHT22;12544;46.760;15.942;2022-11-20T00:11:21;3.10;99.90
24412;DHT22;12544;46.760;15.942;2022-11-20T00:13:49;2.90;99.90
24412;DHT22;12544;46.760;15.942;2022-11-20T00:16:25;2.80;99.90
24412;DHT22;12544;46.760;15.942;2022-11-20T00:18:51;2.80;99.90
24412;DHT22;12544;46.760;15.942;2022-11-20T00:23:44;3.50;99.90
24412;DHT22;12544;46.760;15.942;2022-11-20T00:26:17;3.10;99.90
24412;DHT22;12544;46.760;15.942;2022-11-20T00:28:43;3.00;99.90
24412;DHT22;12544;46.760;15.942;2022-11-20T00:31:13;3.00;99.90
24412;DHT22;12544;46.760;15.942;2022-11-20T00:33:39;3.00;99.90
24412;DHT22;12544;46.760;15.942;2022-11-20T00:36:28;3.00;99.90
24412;DHT22;12544;46.760;15.942;2022-11-20T00:38:57;3.00;99.90
24412;DHT22;12544;46.760;15.942;2022-11-20T00:41:24;3.10;99.90
24412;DHT22;12544;46.760;15.942;2022-11-20T00:43:52;3.00;99.90
24412;DHT22;12544;46.760;15.942;2022-11-20T00:46:23;3.00;99.90
24412;DHT22;12544;46.760;15.942;2022-11-20T00:48:49;3.10;99.90
24412;DHT22;12544;46.760;15.942;2022-11-20T00:51:17;3.10;99.90
24412;DHT22;12544;46.760;15.942;2022-11-20T00:53:44;3.10;99.90
24412;DHT22;12544;46.760;15.942;2022-11-20T00:56:11;3.20;99.90
24412;DHT22;12544;46.760;15.942;2022-11-20T00:59:14;3.90;99.90
24412;DHT22;12544;46.760;15.942;2022-11-20T01:01:39;3.10;99.90
24412;DHT22;12544;46.760;15.942;2022-11-20T01:04:05;3.10;99.90
24412;DHT22;12544;46.760;15.942;2022-11-20T01:06:35;3.10;99.90
24412;DHT22;12544;46.760;15.942;2022-11-20T01:09:12;3.20;99.90
24412;DHT22;12544;46.760;15.942;2022-11-20T01:11:43;3.10;99.90
24412;DHT22;12544;46.760;15.942;2022-11-20T01:14:35;3.10;99.90
24412;DHT22;12544;46.760;15.942;2022-11-20T01:17:01;3.10;99.90
24412;DHT22;12544;46.760;15.942;2022-11-20T01:19:26;3.20;99.90
24412;DHT22;12544;46.760;15.942;2022-11-20T01:21:53;3.20;99.90
24412;DHT22;12544;46.760;15.942;2022-11-20T01:24:21;3.30;99.90
24412;DHT22;12544;46.760;15.942;2022-11-20T01:26:49;3.40;99.90
24412;DHT22;12544;46.760;15.942;2022-11-20T01:29:23;3.60;99.90
24412;DHT22;12544;46.760;15.942;2022-11-20T01:32:02;3.30;99.90
24412;DHT22;12544;46.760;15.942;2022-11-20T01:34:42;3.40;99.90
24412;DHT22;12544;46.760;15.942;2022-11-20T01:37:07;3.40;99.90
24412;DHT22;12544;46.760;15.942;2022-11-20T01:39:34;3.60;99.90
24412;DHT22;12544;46.760;15.942;2022-11-20T01:42:00;3.70;99.90
24412;DHT22;12544;46.760;15.942;2022-11-20T01:47:40;3.80;99.90
24412;DHT22;12544;46.760;15.942;2022-11-20T01:50:23;3.70;99.90
24412;DHT22;12544;46.760;15.942;2022-11-20T01:52:51;3.70;99.90
24412;DHT22;12544;46.760;15.942;2022-11-20T01:55:26;3.70;99.90
24412;DHT22;12544;46.760;15.942;2022-11-20T01:57:54;3.70;99.90
24412;DHT22;12544;46.760;15.942;2022-11-20T02:00:21;3.60;99.90
24412;DHT22;12544;46.760;15.942;2022-11-20T02:02:51;3.60;99.90
24412;DHT22;12544;46.760;15.942;2022-11-20T02:05:55;3.60;99.90
24412;DHT22;12544;46.760;15.942;2022-11-20T02:08:23;3.60;99.90
24412;DHT22;12544;46.760;15.942;2022-11-20T02:10:53;3.60;99.90
24412;DHT22;12544;46.760;15.942;2022-11-20T02:13:19;3.60;99.90
24412;DHT22;12544;46.760;15.942;2022-11-20T02:16:03;3.50;99.90
24412;DHT22;12544;46.760;15.942;2022-11-20T02:18:30;3.50;99.90
24412;DHT22;12544;46.760;15.942;2022-11-20T02:21:28;3.50;99.90
24412;DHT22;12544;46.760;15.942;2022-11-20T02:26:43;3.50;99.90
24412;DHT22;12544;46.760;15.942;2022-11-20T02:29:09;3.60;99.90
24412;DHT22;12544;46.760;15.942;2022-11-20T02:31:40;3.40;99.90
24412;DHT22;12544;46.760;15.942;2022-11-20T02:34:06;3.30;99.90
24412;DHT22;12544;46.760;15.942;2022-11-20T02:36:33;3.30;99.90
24412;DHT22;12544;46.760;15.942;2022-11-20T02:38:59;3.30;99.90
24412;DHT22;12544;46.760;15.942;2022-11-20T02:41:36;3.20;99.90
24412;DHT22;12544;46.760;15.942;2022-11-20T02:44:03;3.30;99.90
24412;DHT22;12544;46.760;15.942;2022-11-20T02:46:29;3.30;99.90
24412;DHT22;12544;46.760;15.942;2022-11-20T02:48:55;3.60;99.90
24412;DHT22;12544;46.760;15.942;2022-11-20T02:51:21;3.60;99.90
24412;DHT22;12544;46.760;15.942;2022-11-20T02:53:50;3.60;99.90
24412;DHT22;12544;46.760;15.942;2022-11-20T02:56:16;3.80;99.90
24412;DHT22;12544;46.760;15.942;2022-11-20T02:58:42;3.80;99.90
24412;DHT22;12544;46.760;15.942;2022-11-20T03:01:07;4.00;99.90
24412;DHT22;12544;46.760;15.942;2022-11-20T03:03:50;3.90;99.90
24412;DHT22;12544;46.760;15.942;2022-11-20T03:06:16;3.90;99.90
24412;DHT22;12544;46.760;15.942;2022-11-20T03:08:42;3.90;99.90
24412;DHT22;12544;46.760;15.942;2022-11-20T03:11:08;4.00;99.90
24412;DHT22;12544;46.760;15.942;2022-11-20T03:13:35;4.00;99.90
24412;DHT22;12544;46.760;15.942;2022-11-20T03:16:18;4.00;99.90
24412;DHT22;12544;46.760;15.942;2022-11-20T03:18:45;4.00;99.90
24412;DHT22;12544;46.760;15.942;2022-11-20T03:21:11;4.00;99.90
24412;DHT22;12544;46.760;15.942;2022-11-20T03:23:38;3.90;99.90
24412;DHT22;12544;46.760;15.942;2022-11-20T03:26:24;3.90;99.90
24412;DHT22;12544;46.760;15.942;2022-11-20T03:28:55;3.90;99.90
24412;DHT22;12544;46.760;15.942;2022-11-20T03:31:24;3.90;99.90
24412;DHT22;12544;46.760;15.942;2022-11-20T03:33:52;3.90;99.90
24412;DHT22;12544;46.760;15.942;2022-11-20T03:36:20;3.70;99.90
24412;DHT22;12544;46.760;15.942;2022-11-20T03:38:46;3.60;99.90
24412;DHT22;12544;46.760;15.942;2022-11-20T03:41:19;3.50;99.90
24412;DHT22;12544;46.760;15.942;2022-11-20T03:43:59;3.50;99.90
24412;DHT22;12544;46.760;15.942;2022-11-20T03:46:26;3.30;99.90
24412;DHT22;12544;46.760;15.942;2022-11-20T03:48:52;3.30;99.90
24412;DHT22;12544;46.760;15.942;2022-11-20T03:51:21;3.40;99.90
24412;DHT22;12544;46.760;15.942;2022-11-20T03:53:49;3.40;99.90
24412;DHT22;12544;46.760;15.942;2022-11-20T03:56:17;3.40;99.90
24412;DHT22;12544;46.760;15.942;2022-11-20T03:58:44;3.40;99.90
24412;DHT22;12544;46.760;15.942;2022-11-20T04:01:12;3.40;99.90
24412;DHT22;12544;46.760;15.942;2022-11-20T04:03:40;3.40;99.90
24412;DHT22;12544;46.760;15.942;2022-11-20T04:06:09;3.10;99.90
24412;DHT22;12544;46.760;15.942;2022-11-20T04:08:35;3.20;99.90
24412;DHT22;12544;46.760;15.942;2022-11-20T04:11:22;3.50;99.90
24412;DHT22;12544;46.760;15.942;2022-11-20T04:13:53;3.30;99.90
24412;DHT22;12544;46.760;15.942;2022-11-20T04:16:20;3.30;99.90
24412;DHT22;12544;46.760;15.942;2022-11-20T04:18:46;3.30;99.90
24412;DHT22;12544;46.760;15.942;2022-11-20T04:21:12;3.30;99.90
24412;DHT22;12544;46.760;15.942;2022-11-20T04:23:45;3.30;99.90
24412;DHT22;12544;46.760;15.942;2022-11-20T04:26:11;3.30;99.90
24412;DHT22;12544;46.760;15.942;2022-11-20T04:28:38;3.60;99.90
24412;DHT22;12544;46.760;15.942;2022-11-20T04:31:12;3.20;99.90
24412;DHT22;12544;46.760;15.942;2022-11-20T04:33:38;3.40;99.90
24412;DHT22;12544;46.760;15.942;2022-11-20T04:38:34;3.10;99.90
24412;DHT22;12544;46.760;15.942;2022-11-20T04:41:04;3.20;99.90
24412;DHT22;12544;46.760;15.942;2022-11-20T04:43:30;3.10;99.90
24412;DHT22;12544;46.760;15.942;2022-11-20T04:45:57;3.10;99.90
24412;DHT22;12544;46.760;15.942;2022-11-20T04:48:24;3.20;99.90
24412;DHT22;12544;46.760;15.942;2022-11-20T04:50:51;3.20;99.90
24412;DHT22;12544;46.760;15.942;2022-11-20T04:53:17;3.10;99.90
24412;DHT22;12544;46.760;15.942;2022-11-20T04:55:47;3.10;99.90
24412;DHT22;12544;46.760;15.942;2022-11-20T04:58:13;3.20;99.90
24412;DHT22;12544;46.760;15.942;2022-11-20T05:00:39;3.20;99.90
24412;DHT22;12544;46.760;15.942;2022-11-20T05:03:05;3.20;99.90
24412;DHT22;12544;46.760;15.942;2022-11-20T05:05:31;3.30;99.90
24412;DHT22;12544;46.760;15.942;2022-11-20T05:07:57;3.30;99.90
24412;DHT22;12544;46.760;15.942;2022-11-20T05:10:24;3.30;99.90
24412;DHT22;12544;46.760;15.942;2022-11-20T05:12:50;3.40;99.90
24412;DHT22;12544;46.760;15.942;2022-11-20T05:15:16;3.50;99.90
24412;DHT22;12544;46.760;15.942;2022-11-20T05:17:49;3.50;99.90
24412;DHT22;12544;46.760;15.942;2022-11-20T05:20:53;3.50;99.90
24412;DHT22;12544;46.760;15.942;2022-11-20T05:23:19;3.60;99.90
24412;DHT22;12544;46.760;15.942;2022-11-20T05:25:45;3.60;99.90
24412;DHT22;12544;46.760;15.942;2022-11-20T05:28:10;3.60;99.90
24412;DHT22;12544;46.760;15.942;2022-11-20T05:30:36;3.60;99.90
24412;DHT22;12544;46.760;15.942;2022-11-20T05:33:01;3.70;99.90
24412;DHT22;12544;46.760;15.942;2022-11-20T05:35:27;3.70;99.90
24412;DHT22;12544;46.760;15.942;2022-11-20T05:38:14;4.40;99.90
24412;DHT22;12544;46.760;15.942;2022-11-20T05:40:39;3.70;99.90
24412;DHT22;12544;46.760;15.942;2022-11-20T05:43:05;3.80;99.90
24412;DHT22;12544;46.760;15.942;2022-11-20T05:45:31;3.90;99.90
24412;DHT22;12544;46.760;15.942;2022-11-20T05:48:00;3.90;99.90
24412;DHT22;12544;46.760;15.942;2022-11-20T05:50:27;3.70;99.90
24412;DHT22;12544;46.760;15.942;2022-11-20T05:52:53;3.80;99.90
24412;DHT22;12544;46.760;15.942;2022-11-20T05:55:18;3.70;99.90
24412;DHT22;12544;46.760;15.942;2022-11-20T05:57:44;3.60;99.90
24412;DHT22;12544;46.760;15.942;2022-11-20T06:00:10;4.00;99.90
24412;DHT22;12544;46.760;15.942;2022-11-20T06:02:41;3.70;99.90
24412;DHT22;12544;46.760;15.942;2022-11-20T06:05:07;3.80;99.90
24412;DHT22;12544;46.760;15.942;2022-11-20T06:07:33;3.90;99.90
24412;DHT22;12544;46.760;15.942;2022-11-20T06:09:59;3.90;99.90
24412;DHT22;12544;46.760;15.942;2022-11-20T06:12:24;4.00;99.90
24412;DHT22;12544;46.760;15.942;2022-11-20T06:14:50;4.10;99.90
24412;DHT22;12544;46.760;15.942;2022-11-20T06:17:15;4.00;99.90
24412;DHT22;12544;46.760;15.942;2022-11-20T06:19:41;4.00;99.90
24412;DHT22;12544;46.760;15.942;2022-11-20T06:22:06;4.10;99.90
24412;DHT22;12544;46.760;15.942;2022-11-20T06:24:32;4.10;99.90
24412;DHT22;12544;46.760;15.942;2022-11-20T06:26:58;4.20;99.90
24412;DHT22;12544;46.760;15.942;2022-11-20T06:29:23;4.10;99.90
24412;DHT22;12544;46.760;15.942;2022-11-20T06:31:49;4.00;99.90
24412;DHT22;12544;46.760;15.942;2022-11-20T06:34:14;4.00;99.90
24412;DHT22;12544;46.760;15.942;2022-11-20T06:36:40;4.20;99.90
24412;DHT22;12544;46.760;15.942;2022-11-20T06:39:14;4.10;99.90
24412;DHT22;12544;46.760;15.942;2022-11-20T06:41:39;4.10;99.90
24412;DHT22;12544;46.760;15.942;2022-11-20T06:44:05;4.10;99.90
24412;DHT22;12544;46.760;15.942;2022-11-20T06:46:31;3.90;99.90
24412;DHT22;12544;46.760;15.942;2022-11-20T06:48:56;4.30;99.90
24412;DHT22;12544;46.760;15.942;2022-11-20T06:51:23;4.10;99.90
24412;DHT22;12544;46.760;15.942;2022-11-20T06:53:49;4.20;99.90
24412;DHT22;12544;46.760;15.942;2022-11-20T06:56:14;4.20;99.90
24412;DHT22;12544;46.760;15.942;2022-11-20T06:58:40;4.20;99.90
24412;DHT22;12544;46.760;15.942;2022-11-20T07:01:08;4.30;99.90
24412;DHT22;12544;46.760;15.942;2022-11-20T07:03:35;4.30;99.90
24412;DHT22;12544;46.760;15.942;2022-11-20T07:06:01;4.30;99.90
24412;DHT22;12544;46.760;15.942;2022-11-20T07:08:27;4.30;99.90
24412;DHT22;12544;46.760;15.942;2022-11-20T07:10:52;4.30;99.90
24412;DHT22;12544;46.760;15.942;2022-11-20T07:13:22;4.30;99.90
24412;DHT22;12544;46.760;15.942;2022-11-20T07:15:47;4.20;99.90
24412;DHT22;12544;46.760;15.942;2022-11-20T07:18:13;4.40;99.90
24412;DHT22;12544;46.760;15.942;2022-11-20T07:20:38;4.30;99.90
24412;DHT22;12544;46.760;15.942;2022-11-20T07:23:04;4.30;99.90
24412;DHT22;12544;46.760;15.942;2022-11-20T07:25:30;4.40;99.90
24412;DHT22;12544;46.760;15.942;2022-11-20T07:27:59;4.40;99.90
24412;DHT22;12544;46.760;15.942;2022-11-20T07:30:26;4.50;99.90
24412;DHT22;12544;46.760;15.942;2022-11-20T07:32:55;4.50;99.90
24412;DHT22;12544;46.760;15.942;2022-11-20T07:35:23;4.40;99.90
24412;DHT22;12544;46.760;15.942;2022-11-20T07:38:07;4.40;99.90
24412;DHT22;12544;46.760;15.942;2022-11-20T07:40:33;4.40;99.90
24412;DHT22;12544;46.760;15.942;2022-11-20T07:42:58;4.40;99.90
24412;DHT22;12544;46.760;15.942;2022-11-20T07:45:24;4.30;99.90
24412;DHT22;12544;46.760;15.942;2022-11-20T07:47:56;4.40;99.90
24412;DHT22;12544;46.760;15.942;2022-11-20T07:50:21;4.40;99.90
24412;DHT22;12544;46.760;15.942;2022-11-20T07:52:47;4.40;99.90
24412;DHT22;12544;46.760;15.942;2022-11-20T07:55:13;4.40;99.90
24412;DHT22;12544;46.760;15.942;2022-11-20T07:57:39;4.50;99.90
24412;DHT22;12544;46.760;15.942;2022-11-20T08:00:12;4.60;99.90
24412;DHT22;12544;46.760;15.942;2022-11-20T08:02:41;4.50;99.90
24412;DHT22;12544;46.760;15.942;2022-11-20T08:05:08;4.80;99.90
24412;DHT22;12544;46.760;15.942;2022-11-20T08:07:41;4.50;99.90
24412;DHT22;12544;46.760;15.942;2022-11-20T08:10:09;4.50;99.90
24412;DHT22;12544;46.760;15.942;2022-11-20T08:12:35;4.40;99.90
24412;DHT22;12544;46.760;15.942;2022-11-20T08:15:25;4.40;99.90
24412;DHT22;12544;46.760;15.942;2022-11-20T08:17:51;4.40;99.90
24412;DHT22;12544;46.760;15.942;2022-11-20T08:20:16;4.50;99.90
24412;DHT22;12544;46.760;15.942;2022-11-20T08:22:42;4.40;99.90
24412;DHT22;12544;46.760;15.942;2022-11-20T08:25:07;4.50;99.90
24412;DHT22;12544;46.760;15.942;2022-11-20T08:27:39;4.50;99.90
24412;DHT22;12544;46.760;15.942;2022-11-20T08:30:05;5.50;99.90
24412;DHT22;12544;46.760;15.942;2022-11-20T08:32:31;4.50;99.90
24412;DHT22;12544;46.760;15.942;2022-11-20T08:34:56;4.40;99.90
24412;DHT22;12544;46.760;15.942;2022-11-20T08:37:25;4.40;99.90
24412;DHT22;12544;46.760;15.942;2022-11-20T08:39:51;4.40;99.90
24412;DHT22;12544;46.760;15.942;2022-11-20T08:42:18;4.30;99.90
24412;DHT22;12544;46.760;15.942;2022-11-20T08:44:44;4.30;99.90
24412;DHT22;12544;46.760;15.942;2022-11-20T08:47:09;4.40;99.90
24412;DHT22;12544;46.760;15.942;2022-11-20T08:49:52;4.50;99.90
24412;DHT22;12544;46.760;15.942;2022-11-20T08:52:17;4.50;99.90
24412;DHT22;12544;46.760;15.942;2022-11-20T08:54:43;4.60;99.90
24412;DHT22;12544;46.760;15.942;2022-11-20T08:57:08;4.50;99.90
24412;DHT22;12544;46.760;15.942;2022-11-20T08:59:34;4.60;99.90
24412;DHT22;12544;46.760;15.942;2022-11-20T09:02:08;4.60;99.90
24412;DHT22;12544;46.760;15.942;2022-11-20T09:04:34;4.70;99.90
24412;DHT22;12544;46.760;15.942;2022-11-20T09:07:00;4.70;99.90
24412;DHT22;12544;46.760;15.942;2022-11-20T09:09:26;4.70;99.90
24412;DHT22;12544;46.760;15.942;2022-11-20T09:11:51;4.60;99.90
24412;DHT22;12544;46.760;15.942;2022-11-20T09:14:17;4.60;99.90
24412;DHT22;12544;46.760;15.942;2022-11-20T09:16:45;4.60;99.90
24412;DHT22;12544;46.760;15.942;2022-11-20T09:19:11;4.70;99.90
24412;DHT22;12544;46.760;15.942;2022-11-20T09:21:36;4.80;99.90
24412;DHT22;12544;46.760;15.942;2022-11-20T09:24:02;4.80;99.90
24412;DHT22;12544;46.760;15.942;2022-11-20T09:26:29;4.90;99.90
24412;DHT22;12544;46.760;15.942;2022-11-20T09:28:55;4.80;99.90
24412;DHT22;12544;46.760;15.942;2022-11-20T09:31:24;4.90;99.90
24412;DHT22;12544;46.760;15.942;2022-11-20T09:33:53;5.00;99.90
24412;DHT22;12544;46.760;15.942;2022-11-20T09:36:18;5.00;99.90
24412;DHT22;12544;46.760;15.942;2022-11-20T09:38:45;5.00;99.90
24412;DHT22;12544;46.760;15.942;2022-11-20T09:46:53;5.20;99.90
24412;DHT22;12544;46.760;15.942;2022-11-20T09:54:51;5.10;99.90
24412;DHT22;12544;46.760;15.942;2022-11-20T09:57:21;5.10;99.90
24412;DHT22;12544;46.760;15.942;2022-11-20T09:59:53;5.00;99.90
24412;DHT22;12544;46.760;15.942;2022-11-20T10:07:40;5.30;99.90
24412;DHT22;12544;46.760;15.942;2022-11-20T10:10:32;5.30;99.90
24412;DHT22;12544;46.760;15.942;2022-11-20T10:18:42;5.50;99.90
24412;DHT22;12544;46.760;15.942;2022-11-20T10:29:33;5.80;99.90
24412;DHT22;12544;46.760;15.942;2022-11-20T10:32:10;5.80;99.90
24412;DHT22;12544;46.760;15.942;2022-11-20T10:34:51;5.80;99.90
24412;DHT22;12544;46.760;15.942;2022-11-20T10:37:25;5.90;99.90
24412;DHT22;12544;46.760;15.942;2022-11-20T10:40:01;6.00;99.90
24412;DHT22;12544;46.760;15.942;2022-11-20T10:42:45;6.00;99.90
24412;DHT22;12544;46.760;15.942;2022-11-20T10:47:49;5.90;99.90
24412;DHT22;12544;46.760;15.942;2022-11-20T10:50:19;5.80;99.90
24412;DHT22;12544;46.760;15.942;2022-11-20T10:55:48;6.20;99.90
24412;DHT22;12544;46.760;15.942;2022-11-20T11:01:18;6.20;99.90
24412;DHT22;12544;46.760;15.942;2022-11-20T11:03:57;6.30;99.90
24412;DHT22;12544;46.760;15.942;2022-11-20T11:06:36;6.40;99.90
24412;DHT22;12544;46.760;15.942;2022-11-20T11:09:13;6.50;99.90
24412;DHT22;12544;46.760;15.942;2022-11-20T11:11:40;6.50;99.90
24412;DHT22;12544;46.760;15.942;2022-11-20T11:14:08;6.50;99.90
24412;DHT22;12544;46.760;15.942;2022-11-20T11:17:02;6.60;99.90
24412;DHT22;12544;46.760;15.942;2022-11-20T11:19:26;6.60;99.90
24412;DHT22;12544;46.760;15.942;2022-11-20T11:21:54;6.70;99.90
24412;DHT22;12544;46.760;15.942;2022-11-20T11:26:57;6.80;99.90
24412;DHT22;12544;46.760;15.942;2022-11-20T11:29:23;6.90;99.90
24412;DHT22;12544;46.760;15.942;2022-11-20T11:31:49;6.90;99.90
24412;DHT22;12544;46.760;15.942;2022-11-20T11:34:16;6.90;99.90
24412;DHT22;12544;46.760;15.942;2022-11-20T11:37:17;6.90;99.90
24412;DHT22;12544;46.760;15.942;2022-11-20T11:39:44;7.00;99.90
24412;DHT22;12544;46.760;15.942;2022-11-20T11:42:16;7.00;99.90
24412;DHT22;12544;46.760;15.942;2022-11-20T11:44:47;6.90;99.90
24412;DHT22;12544;46.760;15.942;2022-11-20T11:47:47;7.00;99.90
24412;DHT22;12544;46.760;15.942;2022-11-20T11:50:21;7.10;99.90
24412;DHT22;12544;46.760;15.942;2022-11-20T11:53:09;7.30;99.90
24412;DHT22;12544;46.760;15.942;2022-11-20T11:56:09;7.40;99.90
24412;DHT22;12544;46.760;15.942;2022-11-20T11:58:47;7.60;99.90
24412;DHT22;12544;46.760;15.942;2022-11-20T12:01:44;7.70;99.90
24412;DHT22;12544;46.760;15.942;2022-11-20T12:04:20;7.60;99.90
24412;DHT22;12544;46.760;15.942;2022-11-20T12:09:52;7.70;99.90
24412;DHT22;12544;46.760;15.942;2022-11-20T12:12:27;7.80;99.90
24412;DHT22;12544;46.760;15.942;2022-11-20T12:14:55;8.00;99.90
24412;DHT22;12544;46.760;15.942;2022-11-20T12:17:22;8.20;99.90
24412;DHT22;12544;46.760;15.942;2022-11-20T12:19:47;8.50;99.90
24412;DHT22;12544;46.760;15.942;2022-11-20T12:25:31;9.20;99.90
24412;DHT22;12544;46.760;15.942;2022-11-20T12:36:17;9.10;99.90
24412;DHT22;12544;46.760;15.942;2022-11-20T12:50:40;8.50;99.90
24412;DHT22;12544;46.760;15.942;2022-11-20T12:53:40;8.30;99.90
24412;DHT22;12544;46.760;15.942;2022-11-20T12:59:23;8.20;99.90
24412;DHT22;12544;46.760;15.942;2022-11-20T13:07:54;8.10;99.90
24412;DHT22;12544;46.760;15.942;2022-11-20T13:19:02;8.30;99.90
24412;DHT22;12544;46.760;15.942;2022-11-20T13:21:40;8.30;99.90
24412;DHT22;12544;46.760;15.942;2022-11-20T13:24:07;8.30;99.90
24412;DHT22;12544;46.760;15.942;2022-11-20T13:26:33;8.30;99.90
24412;DHT22;12544;46.760;15.942;2022-11-20T13:29:08;8.50;99.90
24412;DHT22;12544;46.760;15.942;2022-11-20T13:31:35;8.60;99.90
24412;DHT22;12544;46.760;15.942;2022-11-20T13:34:04;8.70;99.90
24412;DHT22;12544;46.760;15.942;2022-11-20T13:36:34;8.60;99.90
24412;DHT22;12544;46.760;15.942;2022-11-20T13:39:02;8.60;99.90
24412;DHT22;12544;46.760;15.942;2022-11-20T13:41:34;8.50;99.90
24412;DHT22;12544;46.760;15.942;2022-11-20T13:46:40;8.40;99.90
24412;DHT22;12544;46.760;15.942;2022-11-20T13:49:31;8.30;99.90
24412;DHT22;12544;46.760;15.942;2022-11-20T13:55:12;8.30;99.90
24412;DHT22;12544;46.760;15.942;2022-11-20T14:00:45;8.20;99.90
24412;DHT22;12544;46.760;15.942;2022-11-20T14:03:21;8.20;99.90
24412;DHT22;12544;46.760;15.942;2022-11-20T14:05:55;8.20;99.90
24412;DHT22;12544;46.760;15.942;2022-11-20T14:08:35;8.20;99.90
24412;DHT22;12544;46.760;15.942;2022-11-20T14:11:19;8.30;99.90
24412;DHT22;12544;46.760;15.942;2022-11-20T14:16:28;8.20;99.90
24412;DHT22;12544;46.760;15.942;2022-11-20T14:18:55;8.20;99.90
24412;DHT22;12544;46.760;15.942;2022-11-20T14:21:25;8.20;99.90
24412;DHT22;12544;46.760;15.942;2022-11-20T14:24:28;8.20;99.90
24412;DHT22;12544;46.760;15.942;2022-11-20T14:26:54;8.20;99.90
24412;DHT22;12544;46.760;15.942;2022-11-20T14:29:23;8.20;99.90
24412;DHT22;12544;46.760;15.942;2022-11-20T14:31:53;8.20;99.90
24412;DHT22;12544;46.760;15.942;2022-11-20T14:34:25;8.10;99.90
24412;DHT22;12544;46.760;15.942;2022-11-20T14:36:57;8.10;99.90
24412;DHT22;12544;46.760;15.942;2022-11-20T14:39:36;8.00;99.90
24412;DHT22;12544;46.760;15.942;2022-11-20T14:42:10;8.00;99.90
24412;DHT22;12544;46.760;15.942;2022-11-20T14:44:59;8.00;99.90
24412;DHT22;12544;46.760;15.942;2022-11-20T14:47:28;7.90;99.90
24412;DHT22;12544;46.760;15.942;2022-11-20T14:49:55;7.80;99.90
24412;DHT22;12544;46.760;15.942;2022-11-20T14:52:23;7.80;99.90
24412;DHT22;12544;46.760;15.942;2022-11-20T14:54:53;7.80;99.90
24412;DHT22;12544;46.760;15.942;2022-11-20T14:59:51;7.80;99.90
24412;DHT22;12544;46.760;15.942;2022-11-20T15:02:29;7.80;99.90
24412;DHT22;12544;46.760;15.942;2022-11-20T15:04:59;7.80;99.90
24412;DHT22;12544;46.760;15.942;2022-11-20T15:07:41;7.70;99.90
24412;DHT22;12544;46.760;15.942;2022-11-20T15:10:13;7.70;99.90
24412;DHT22;12544;46.760;15.942;2022-11-20T15:12:55;7.70;99.90
24412;DHT22;12544;46.760;15.942;2022-11-20T15:15:31;7.60;99.90
24412;DHT22;12544;46.760;15.942;2022-11-20T15:17:58;7.60;99.90
24412;DHT22;12544;46.760;15.942;2022-11-20T15:20:27;7.50;99.90
24412;DHT22;12544;46.760;15.942;2022-11-20T15:23:23;7.40;99.90
24412;DHT22;12544;46.760;15.942;2022-11-20T15:25:49;7.40;99.90
24412;DHT22;12544;46.760;15.942;2022-11-20T15:28:23;7.20;99.90
24412;DHT22;12544;46.760;15.942;2022-11-20T15:30:51;7.20;99.90
24412;DHT22;12544;46.760;15.942;2022-11-20T15:33:40;7.20;99.90
24412;DHT22;12544;46.760;15.942;2022-11-20T15:36:06;6.90;99.90
24412;DHT22;12544;46.760;15.942;2022-11-20T15:38:32;6.80;99.90
24412;DHT22;12544;46.760;15.942;2022-11-20T15:40:58;6.70;99.90
24412;DHT22;12544;46.760;15.942;2022-11-20T15:43:23;6.70;99.90
24412;DHT22;12544;46.760;15.942;2022-11-20T15:45:51;6.60;99.90
24412;DHT22;12544;46.760;15.942;2022-11-20T15:48:29;6.60;99.90
24412;DHT22;12544;46.760;15.942;2022-11-20T15:51:07;6.50;99.90
24412;DHT22;12544;46.760;15.942;2022-11-20T15:53:38;6.50;99.90
24412;DHT22;12544;46.760;15.942;2022-11-20T15:56:04;6.40;99.90
24412;DHT22;12544;46.760;15.942;2022-11-20T15:58:30;6.40;99.90
24412;DHT22;12544;46.760;15.942;2022-11-20T16:00:56;6.40;99.90
24412;DHT22;12544;46.760;15.942;2022-11-20T16:03:22;6.40;99.90
24412;DHT22;12544;46.760;15.942;2022-11-20T16:05:48;6.30;99.90
24412;DHT22;12544;46.760;15.942;2022-11-20T16:08:13;6.20;99.90
24412;DHT22;12544;46.760;15.942;2022-11-20T16:10:40;6.20;99.90
24412;DHT22;12544;46.760;15.942;2022-11-20T16:13:15;6.20;99.90
24412;DHT22;12544;46.760;15.942;2022-11-20T16:16:06;6.20;99.90
24412;DHT22;12544;46.760;15.942;2022-11-20T16:18:34;6.10;99.90
24412;DHT22;12544;46.760;15.942;2022-11-20T16:21:00;6.10;99.90
24412;DHT22;12544;46.760;15.942;2022-11-20T16:23:26;6.10;99.90
24412;DHT22;12544;46.760;15.942;2022-11-20T16:25:51;6.00;99.90
24412;DHT22;12544;46.760;15.942;2022-11-20T16:28:18;6.10;99.90
24412;DHT22;12544;46.760;15.942;2022-11-20T16:30:44;6.10;99.90
24412;DHT22;12544;46.760;15.942;2022-11-20T16:33:12;6.10;99.90
24412;DHT22;12544;46.760;15.942;2022-11-20T16:35:38;6.10;99.90
24412;DHT22;12544;46.760;15.942;2022-11-20T16:38:09;6.00;99.90
24412;DHT22;12544;46.760;15.942;2022-11-20T16:40:35;5.90;99.90
24412;DHT22;12544;46.760;15.942;2022-11-20T16:43:08;5.90;99.90
24412;DHT22;12544;46.760;15.942;2022-11-20T16:45:36;5.90;99.90
24412;DHT22;12544;46.760;15.942;2022-11-20T16:48:05;5.90;99.90
24412;DHT22;12544;46.760;15.942;2022-11-20T16:50:30;5.90;99.90
24412;DHT22;12544;46.760;15.942;2022-11-20T16:52:56;5.90;99.90
24412;DHT22;12544;46.760;15.942;2022-11-20T16:55:45;6.00;99.90
24412;DHT22;12544;46.760;15.942;2022-11-20T16:58:10;5.90;99.90
24412;DHT22;12544;46.760;15.942;2022-11-20T17:00:38;5.90;99.90
24412;DHT22;12544;46.760;15.942;2022-11-20T17:03:04;5.90;99.90
24412;DHT22;12544;46.760;15.942;2022-11-20T17:05:31;5.90;99.90
24412;DHT22;12544;46.760;15.942;2022-11-20T17:08:08;5.80;99.90
24412;DHT22;12544;46.760;15.942;2022-11-20T17:10:34;5.80;99.90
24412;DHT22;12544;46.760;15.942;2022-11-20T17:12:59;5.80;99.90
24412;DHT22;12544;46.760;15.942;2022-11-20T17:15:25;5.70;99.90
24412;DHT22;12544;46.760;15.942;2022-11-20T17:17:50;5.80;99.90
24412;DHT22;12544;46.760;15.942;2022-11-20T17:20:16;5.80;99.90
24412;DHT22;12544;46.760;15.942;2022-11-20T17:22:46;5.80;99.90
24412;DHT22;12544;46.760;15.942;2022-11-20T17:25:11;5.90;99.90
24412;DHT22;12544;46.760;15.942;2022-11-20T17:27:37;5.80;99.90
24412;DHT22;12544;46.760;15.942;2022-11-20T17:30:03;5.70;99.90
24412;DHT22;12544;46.760;15.942;2022-11-20T17:32:28;5.90;99.90
24412;DHT22;12544;46.760;15.942;2022-11-20T17:34:54;5.90;99.90
24412;DHT22;12544;46.760;15.942;2022-11-20T17:37:20;5.80;99.90
24412;DHT22;12544;46.760;15.942;2022-11-20T17:39:46;6.00;99.90